Time;durP1;ratioP1;P1;durP2;ratioP2;P2;SDS_P1;SDS_P2;PMS_P1;PMS_P2;Temp;Humidity;BMP_temperature;BMP_pressure;BME280_temperature;BME280_humidity;BME280_pressure;Samples;Min_cycle;Max_cycle;Signal;HPM_P1;HPM_P2
2021/09/28 00:00:16;;;;;;;1.45;0.32;;;14.40;84.20;;;;;;5076361;28;20142;-75
2021/09/28 00:02:41;;;;;;;0.68;0.20;;;14.30;85.60;;;;;;5076253;28;20282;-74
2021/09/28 00:05:08;;;;;;;0.45;0.30;;;14.20;85.50;;;;;;5074796;28;20021;-75
2021/09/28 00:07:33;;;;;;;1.25;0.20;;;14.10;87.10;;;;;;5076113;28;20029;-75
2021/09/28 00:09:59;;;;;;;1.52;0.20;;;13.90;86.40;;;;;;5076011;28;20023;-74
2021/09/28 00:12:24;;;;;;;0.30;0.30;;;13.90;87.20;;;;;;5076043;28;20029;-75
2021/09/28 00:14:50;;;;;;;1.30;0.30;;;13.90;86.70;;;;;;5075808;28;20033;-75
2021/09/28 00:17:15;;;;;;;0.57;0.35;;;13.90;87.30;;;;;;5075903;28;20082;-75
2021/09/28 00:19:41;;;;;;;1.35;0.28;;;13.80;88.30;;;;;;5075989;28;20039;-76
2021/09/28 00:22:07;;;;;;;3.20;0.70;;;13.80;88.90;;;;;;5075708;28;20074;-75
2021/09/28 00:24:34;;;;;;;2.15;0.60;;;13.80;89.20;;;;;;5079194;28;20055;-75
2021/09/28 00:27:00;;;;;;;0.80;0.30;;;13.70;88.80;;;;;;5098709;28;20076;-75
2021/09/28 00:29:26;;;;;;;0.60;0.35;;;13.80;88.80;;;;;;5099980;28;20048;-74
2021/09/28 00:31:51;;;;;;;1.73;0.30;;;13.80;88.80;;;;;;5081833;28;20028;-75
2021/09/28 00:34:18;;;;;;;0.40;0.35;;;13.90;88.40;;;;;;5075883;28;20033;-75
2021/09/28 00:36:43;;;;;;;0.25;0.20;;;13.90;89.00;;;;;;5075346;28;20476;-75
2021/09/28 00:39:09;;;;;;;0.32;0.22;;;13.90;88.70;;;;;;5075030;28;20033;-75
2021/09/28 00:41:34;;;;;;;0.90;0.30;;;13.90;88.90;;;;;;5075541;28;20380;-75
2021/09/28 00:44:00;;;;;;;0.73;0.03;;;13.80;88.30;;;;;;5075425;28;20024;-76
2021/09/28 00:46:25;;;;;;;1.17;0.47;;;13.70;88.30;;;;;;5075400;28;20024;-75
2021/09/28 00:48:52;;;;;;;0.80;0.40;;;13.50;89.00;;;;;;5075361;28;20042;-75
2021/09/28 00:51:18;;;;;;;1.80;0.40;;;13.30;89.60;;;;;;5075474;28;20376;-75
2021/09/28 00:53:47;;;;;;;1.60;0.20;;;13.20;89.20;;;;;;5075507;28;20044;-74
2021/09/28 00:56:18;;;;;;;0.52;0.30;;;13.20;89.90;;;;;;5075565;28;20419;-75
2021/09/28 00:58:44;;;;;;;0.63;0.35;;;13.10;89.00;;;;;;5075445;28;20497;-74
2021/09/28 01:01:11;;;;;;;3.45;0.50;;;13.00;88.50;;;;;;5075140;28;20111;-75
2021/09/28 01:03:38;;;;;;;0.50;0.20;;;13.00;88.10;;;;;;5075160;28;20021;-75
2021/09/28 01:06:03;;;;;;;0.85;0.40;;;12.90;87.40;;;;;;5075052;28;20033;-75
2021/09/28 01:08:29;;;;;;;1.25;0.40;;;13.00;87.20;;;;;;5074700;28;20473;-75
2021/09/28 01:10:56;;;;;;;1.20;0.40;;;12.90;88.00;;;;;;5074917;28;20481;-75
2021/09/28 01:13:23;;;;;;;1.05;0.40;;;12.90;88.10;;;;;;5074961;28;20060;-75
2021/09/28 01:16:01;;;;;;;2.33;0.30;;;13.00;88.30;;;;;;5074867;28;20032;-75
2021/09/28 01:18:35;;;;;;;0.98;0.30;;;13.00;88.40;;;;;;5074782;28;20477;-75
2021/09/28 01:21:02;;;;;;;1.03;0.30;;;13.10;88.10;;;;;;5075011;28;20028;-75
2021/09/28 01:23:28;;;;;;;0.20;0.20;;;13.10;87.90;;;;;;5074886;28;20158;-75
2021/09/28 01:25:54;;;;;;;1.02;0.47;;;13.00;88.20;;;;;;5074619;28;20078;-75
2021/09/28 01:28:19;;;;;;;2.47;0.30;;;13.00;88.30;;;;;;5074561;28;20022;-75
2021/09/28 01:30:45;;;;;;;1.25;0.40;;;13.00;87.70;;;;;;5074594;28;20056;-75
2021/09/28 01:33:11;;;;;;;0.95;0.30;;;13.00;87.80;;;;;;5074424;28;20029;-74
2021/09/28 01:35:39;;;;;;;3.78;0.40;;;13.00;87.80;;;;;;5074606;28;20496;-75
2021/09/28 01:38:05;;;;;;;1.10;0.30;;;12.70;89.30;;;;;;5074422;28;20023;-75
2021/09/28 01:40:31;;;;;;;1.85;0.38;;;12.70;89.50;;;;;;5074465;28;20020;-72
2021/09/28 01:43:03;;;;;;;1.73;0.55;;;12.50;90.50;;;;;;5074325;28;20029;-72
2021/09/28 01:45:29;;;;;;;1.52;0.50;;;12.40;90.70;;;;;;5083473;28;20026;-75
2021/09/28 01:47:55;;;;;;;0.95;0.40;;;12.60;90.30;;;;;;5091116;28;20048;-74
2021/09/28 01:50:20;;;;;;;1.73;0.57;;;12.50;90.30;;;;;;5078339;28;20032;-74
2021/09/28 01:52:46;;;;;;;1.63;0.35;;;12.50;90.40;;;;;;5074539;28;20040;-75
2021/09/28 01:55:11;;;;;;;3.33;0.77;;;12.50;90.20;;;;;;5074236;28;20040;-75
2021/09/28 01:57:37;;;;;;;6.43;0.65;;;12.50;90.40;;;;;;5074047;28;20029;-75
2021/09/28 02:00:03;;;;;;;4.65;0.60;;;12.50;90.40;;;;;;5074032;28;20542;-74
2021/09/28 02:02:29;;;;;;;2.38;0.60;;;12.50;90.00;;;;;;5073954;28;20024;-75
2021/09/28 02:04:55;;;;;;;3.72;0.57;;;12.60;89.60;;;;;;5073898;28;20032;-75
2021/09/28 02:07:20;;;;;;;2.25;0.30;;;12.60;89.50;;;;;;5073907;28;20027;-74
2021/09/28 02:09:46;;;;;;;3.22;0.55;;;12.60;89.00;;;;;;5073719;28;20385;-74
2021/09/28 02:12:11;;;;;;;1.30;0.38;;;12.70;89.80;;;;;;5073750;28;20484;-75
2021/09/28 02:14:37;;;;;;;2.40;0.60;;;12.70;88.30;;;;;;5073675;28;20104;-75
2021/09/28 02:17:02;;;;;;;2.17;0.50;;;12.70;87.80;;;;;;5073619;28;20036;-75
2021/09/28 02:19:28;;;;;;;2.83;0.40;;;12.80;87.80;;;;;;5073639;28;20036;-75
2021/09/28 02:21:53;;;;;;;2.13;0.50;;;12.80;87.00;;;;;;5073585;28;20024;-75
2021/09/28 02:24:20;;;;;;;1.33;0.32;;;12.90;86.60;;;;;;5072273;28;20031;-74
2021/09/28 02:26:47;;;;;;;3.00;0.40;;;13.00;86.90;;;;;;5073486;28;20017;-75
2021/09/28 02:29:12;;;;;;;2.25;0.40;;;13.10;86.30;;;;;;5073524;28;20035;-75
2021/09/28 02:31:39;;;;;;;1.35;0.47;;;13.10;86.20;;;;;;5073399;28;20060;-75
2021/09/28 02:34:07;;;;;;;3.13;0.30;;;13.20;85.90;;;;;;5073262;28;20150;-74
2021/09/28 02:36:33;;;;;;;2.65;0.40;;;13.20;86.70;;;;;;5073384;28;20048;-75
2021/09/28 02:38:59;;;;;;;1.55;0.50;;;13.30;85.80;;;;;;5073334;28;20029;-74
2021/09/28 02:41:25;;;;;;;0.70;0.50;;;13.30;85.70;;;;;;5073369;28;20025;-75
2021/09/28 02:43:51;;;;;;;2.20;0.52;;;13.40;85.50;;;;;;5073271;28;20024;-75
2021/09/28 02:46:16;;;;;;;1.42;0.40;;;13.40;85.20;;;;;;5073263;28;20033;-75
2021/09/28 02:48:42;;;;;;;2.60;0.70;;;13.50;85.40;;;;;;5071972;28;20097;-75
2021/09/28 02:51:08;;;;;;;2.22;0.82;;;13.50;85.50;;;;;;5073080;28;20031;-73
2021/09/28 02:53:33;;;;;;;3.03;0.70;;;13.40;85.10;;;;;;5072783;28;20409;-73
2021/09/28 02:55:59;;;;;;;1.40;0.50;;;13.40;85.40;;;;;;5073059;28;20025;-72
2021/09/28 02:58:25;;;;;;;4.63;1.90;;;13.50;85.70;;;;;;5072978;28;20108;-72
2021/09/28 03:00:50;;;;;;;5.13;1.85;;;13.40;85.10;;;;;;5072514;28;20476;-72
2021/09/28 03:03:16;;;;;;;1.45;1.23;;;13.30;85.50;;;;;;5072878;28;20025;-72
2021/09/28 03:05:41;;;;;;;1.88;0.75;;;13.30;85.00;;;;;;5072972;28;20033;-73
2021/09/28 03:08:07;;;;;;;3.28;0.70;;;13.20;84.40;;;;;;5072804;28;20504;-72
2021/09/28 03:10:33;;;;;;;1.30;0.65;;;13.20;84.60;;;;;;5072794;28;20064;-72
2021/09/28 03:12:59;;;;;;;3.33;0.90;;;13.20;84.40;;;;;;5072708;28;20440;-73
2021/09/28 03:15:24;;;;;;;3.47;0.88;;;13.20;84.10;;;;;;5072856;28;20092;-73
2021/09/28 03:17:50;;;;;;;5.53;0.85;;;13.20;84.30;;;;;;5071457;28;20058;-73
2021/09/28 03:20:15;;;;;;;2.78;0.70;;;13.20;84.20;;;;;;5072773;28;20029;-72
2021/09/28 03:22:41;;;;;;;2.05;0.80;;;13.20;84.40;;;;;;5072662;28;20032;-72
2021/09/28 03:25:07;;;;;;;3.55;0.80;;;13.20;84.30;;;;;;5072635;28;20024;-73
2021/09/28 03:27:33;;;;;;;2.92;0.80;;;13.20;84.10;;;;;;5072749;28;20040;-73
2021/09/28 03:29:58;;;;;;;2.92;0.75;;;13.20;84.00;;;;;;5072506;28;20381;-73
2021/09/28 03:32:24;;;;;;;2.10;0.77;;;13.20;84.10;;;;;;5072643;28;20057;-72
2021/09/28 03:34:49;;;;;;;2.70;0.88;;;13.30;84.30;;;;;;5072414;28;20032;-73
2021/09/28 03:37:15;;;;;;;2.35;0.70;;;13.20;84.80;;;;;;5072536;28;20512;-73
2021/09/28 03:39:40;;;;;;;1.98;0.68;;;13.20;84.90;;;;;;5072562;28;20036;-73
2021/09/28 03:42:06;;;;;;;2.92;0.60;;;13.20;84.90;;;;;;5072461;28;20358;-73
2021/09/28 03:44:32;;;;;;;4.32;0.73;;;13.20;84.30;;;;;;5072485;28;20020;-73
2021/09/28 03:46:57;;;;;;;2.10;0.75;;;13.10;84.20;;;;;;5072421;28;20473;-72
2021/09/28 03:49:23;;;;;;;2.58;0.75;;;13.10;83.50;;;;;;5072455;28;20036;-74
2021/09/28 03:51:48;;;;;;;1.77;0.80;;;13.00;83.60;;;;;;5072226;28;20047;-73
2021/09/28 03:54:14;;;;;;;7.25;0.95;;;13.10;84.00;;;;;;5072427;28;20041;-73
2021/09/28 03:56:40;;;;;;;4.22;0.88;;;13.10;84.20;;;;;;5072490;28;20056;-72
2021/09/28 03:59:05;;;;;;;2.53;0.65;;;13.10;84.30;;;;;;5071082;28;20358;-72
2021/09/28 04:01:31;;;;;;;5.18;2.58;;;13.10;84.30;;;;;;5072375;28;20066;-72
2021/09/28 04:03:56;;;;;;;4.07;1.88;;;13.10;84.50;;;;;;5072293;28;20073;-72
2021/09/28 04:06:22;;;;;;;3.40;1.70;;;12.90;84.70;;;;;;5072431;28;20051;-73
2021/09/28 04:08:48;;;;;;;4.35;1.42;;;13.00;84.90;;;;;;5072523;28;20029;-72
2021/09/28 04:11:13;;;;;;;8.50;1.50;;;13.00;85.00;;;;;;5072496;28;20218;-72
2021/09/28 04:13:43;;;;;;;2.47;0.70;;;13.00;84.90;;;;;;5074552;28;20032;-73
2021/09/28 04:16:10;;;;;;;2.08;0.80;;;12.90;84.90;;;;;;5075845;28;20063;-72
2021/09/28 04:18:36;;;;;;;1.60;0.93;;;13.00;85.10;;;;;;5075824;28;20024;-72
2021/09/28 04:21:01;;;;;;;1.73;0.70;;;12.90;85.00;;;;;;5075924;28;20039;-72
2021/09/28 04:23:27;;;;;;;2.60;0.77;;;12.90;85.10;;;;;;5076012;28;20485;-72
2021/09/28 04:25:53;;;;;;;2.97;1.02;;;12.90;85.10;;;;;;5075972;28;20029;-71
2021/09/28 04:28:18;;;;;;;2.50;0.90;;;12.90;85.20;;;;;;5075886;28;20039;-71
2021/09/28 04:30:44;;;;;;;2.92;1.00;;;12.90;85.20;;;;;;5075834;28;20031;-73
2021/09/28 04:33:10;;;;;;;1.10;1.00;;;12.90;85.10;;;;;;5074527;28;20082;-72
2021/09/28 04:35:35;;;;;;;2.72;1.02;;;12.80;84.90;;;;;;5075573;28;20108;-72
2021/09/28 04:38:01;;;;;;;1.85;1.10;;;12.80;84.80;;;;;;5075423;28;20021;-72
2021/09/28 04:40:26;;;;;;;2.17;1.25;;;12.80;84.90;;;;;;5075464;28;20432;-72
2021/09/28 04:42:52;;;;;;;4.30;1.17;;;12.70;84.90;;;;;;5075398;28;20034;-72
2021/09/28 04:45:18;;;;;;;1.50;0.70;;;12.70;84.90;;;;;;5075417;28;20013;-72
2021/09/28 04:47:44;;;;;;;1.63;0.70;;;12.70;84.90;;;;;;5075277;28;20028;-73
2021/09/28 04:50:10;;;;;;;4.00;1.15;;;12.60;84.80;;;;;;5075233;28;20454;-72
2021/09/28 04:52:36;;;;;;;4.25;1.10;;;12.60;84.90;;;;;;5075049;28;20127;-73
2021/09/28 04:55:06;;;;;;;0.98;0.70;;;12.60;84.90;;;;;;5075149;28;20366;-72
2021/09/28 04:57:31;;;;;;;0.93;0.60;;;12.50;85.00;;;;;;5074964;28;20028;-73
2021/09/28 04:59:57;;;;;;;2.30;0.75;;;12.50;85.20;;;;;;5074686;28;20025;-73
2021/09/28 05:02:23;;;;;;;2.47;0.70;;;12.50;85.20;;;;;;5074733;28;20073;-72
2021/09/28 05:04:48;;;;;;;1.50;0.80;;;12.50;85.00;;;;;;5074610;28;20028;-73
2021/09/28 05:07:14;;;;;;;2.13;1.00;;;12.50;84.80;;;;;;5074355;28;20096;-72
2021/09/28 05:09:39;;;;;;;2.38;0.90;;;12.50;84.70;;;;;;5074631;28;20097;-72
2021/09/28 05:12:06;;;;;;;1.73;0.90;;;12.40;84.70;;;;;;5074364;28;20067;-73
2021/09/28 05:14:32;;;;;;;1.58;0.70;;;12.40;84.70;;;;;;5074054;28;20078;-72
2021/09/28 05:16:58;;;;;;;1.27;0.98;;;12.50;84.70;;;;;;5074302;28;20021;-74
2021/09/28 05:19:24;;;;;;;5.18;1.40;;;12.50;84.60;;;;;;5074164;28;20477;-71
2021/09/28 05:21:50;;;;;;;2.15;0.82;;;12.50;84.30;;;;;;5073990;28;20278;-72
2021/09/28 05:24:16;;;;;;;2.55;1.10;;;12.40;84.10;;;;;;5073433;28;20552;-72
2021/09/28 05:26:41;;;;;;;3.85;1.40;;;12.40;84.20;;;;;;5073996;28;20506;-73
2021/09/28 05:29:07;;;;;;;6.63;1.20;;;12.40;84.10;;;;;;5073887;28;20021;-73
2021/09/28 05:31:32;;;;;;;2.97;1.10;;;12.20;84.20;;;;;;5074491;28;20206;-73
2021/09/28 05:33:58;;;;;;;15.70;2.55;;;12.20;84.30;;;;;;5093911;28;20044;-75
2021/09/28 05:36:24;;;;;;;16.88;2.53;;;12.70;96.10;;;;;;5088976;28;20099;-76
2021/09/28 05:38:50;;;;;;;7.40;2.80;;;12.60;93.90;;;;;;5074389;28;20052;-77
2021/09/28 05:41:15;;;;;;;4.10;1.88;;;12.70;92.80;;;;;;5074279;28;20082;-83
2021/09/28 05:43:41;;;;;;;3.63;1.50;;;12.70;90.70;;;;;;5074297;28;20031;-83
2021/09/28 05:46:07;;;;;;;6.35;1.40;;;12.50;87.40;;;;;;5073874;28;20068;-80
2021/09/28 05:48:34;;;;;;;2.80;1.30;;;12.40;84.80;;;;;;5072682;28;20119;-80
2021/09/28 05:51:00;;;;;;;6.63;1.40;;;12.40;84.70;;;;;;5073867;28;20025;-81
2021/09/28 05:53:27;;;;;;;3.10;1.15;;;12.80;85.30;;;;;;5073542;28;20063;-81
2021/09/28 05:55:54;;;;;;;3.00;0.88;;;13.30;83.60;;;;;;5073771;28;20522;-83
2021/09/28 05:58:20;;;;;;;8.23;1.10;;;13.60;80.70;;;;;;5073785;28;20052;-82
2021/09/28 06:00:45;;;;;;;3.70;1.13;;;13.60;79.40;;;;;;5073681;28;20046;-81
2021/09/28 06:03:11;;;;;;;4.40;0.82;;;13.70;79.10;;;;;;5073292;28;20103;-81
2021/09/28 06:05:36;;;;;;;4.68;0.70;;;13.80;78.70;;;;;;5073772;28;20484;-82
2021/09/28 06:08:02;;;;;;;1.50;1.10;;;13.80;78.00;;;;;;5075793;28;20020;-81
2021/09/28 06:10:28;;;;;;;1.45;0.95;;;13.70;77.60;;;;;;5072310;28;20515;-81
2021/09/28 06:12:54;;;;;;;2.33;0.98;;;13.60;78.70;;;;;;5071951;28;20040;-82
2021/09/28 06:15:19;;;;;;;3.00;0.88;;;13.50;79.00;;;;;;5071891;28;20060;-81
2021/09/28 06:17:45;;;;;;;9.88;0.90;;;13.60;78.90;;;;;;5073180;28;20107;-82
2021/09/28 06:20:11;;;;;;;3.33;1.08;;;13.60;78.50;;;;;;5072014;28;20082;-81
2021/09/28 06:22:36;;;;;;;3.53;1.02;;;13.70;78.70;;;;;;5071793;28;20017;-82
2021/09/28 06:25:03;;;;;;;3.65;0.93;;;13.70;78.40;;;;;;5073291;28;20052;-83
2021/09/28 06:27:28;;;;;;;2.13;1.10;;;13.80;77.80;;;;;;5073054;28;20024;-82
2021/09/28 06:29:54;;;;;;;1.75;0.98;;;13.80;78.20;;;;;;5071854;28;20023;-81
2021/09/28 06:32:22;;;;;;;4.80;1.50;;;13.90;78.20;;;;;;5073168;28;20028;-81
2021/09/28 06:34:48;;;;;;;10.10;1.77;;;14.00;77.30;;;;;;5071287;28;20039;-81
2021/09/28 06:37:15;;;;;;;5.70;1.27;;;14.10;77.30;;;;;;5071567;28;20029;-81
2021/09/28 06:39:41;;;;;;;4.22;1.40;;;14.10;77.20;;;;;;5073173;28;20024;-82
2021/09/28 06:42:07;;;;;;;3.72;1.67;;;14.20;77.00;;;;;;5073124;28;20021;-82
2021/09/28 06:44:32;;;;;;;6.65;2.50;;;14.30;76.80;;;;;;5072716;28;20077;-82
2021/09/28 06:46:58;;;;;;;3.30;1.98;;;14.30;76.40;;;;;;5072940;28;20047;-82
2021/09/28 06:49:23;;;;;;;6.25;2.53;;;14.30;76.40;;;;;;5071704;28;20028;-82
2021/09/28 06:51:49;;;;;;;5.88;2.38;;;14.30;76.40;;;;;;5072748;28;20055;-83
2021/09/28 06:54:16;;;;;;;4.57;2.42;;;14.40;76.40;;;;;;5071643;28;20555;-82
2021/09/28 06:56:41;;;;;;;4.60;2.50;;;14.40;76.10;;;;;;5072865;28;20104;-82
2021/09/28 06:59:10;;;;;;;11.52;3.15;;;14.50;75.80;;;;;;5072796;28;20051;-82
2021/09/28 07:01:36;;;;;;;4.57;2.03;;;14.50;75.80;;;;;;5072695;28;20078;-82
2021/09/28 07:04:02;;;;;;;4.90;1.40;;;14.60;75.30;;;;;;5072474;28;20028;-82
2021/09/28 07:06:28;;;;;;;5.00;2.10;;;14.70;75.50;;;;;;5072693;28;20028;-82
2021/09/28 07:08:54;;;;;;;3.58;1.42;;;14.80;75.20;;;;;;5072508;28;20041;-83
2021/09/28 07:11:19;;;;;;;3.10;1.25;;;14.80;74.50;;;;;;5072544;28;20016;-81
2021/09/28 07:13:46;;;;;;;4.13;1.40;;;14.80;73.50;;;;;;5072764;28;20467;-81
2021/09/28 07:16:13;;;;;;;2.88;1.00;;;14.80;73.30;;;;;;5072626;28;20032;-82
2021/09/28 07:18:39;;;;;;;2.47;1.30;;;14.90;73.70;;;;;;5071893;28;20484;-81
2021/09/28 07:21:05;;;;;;;4.85;1.23;;;14.90;73.10;;;;;;5071256;28;20099;-82
2021/09/28 07:23:31;;;;;;;3.42;1.10;;;15.10;72.80;;;;;;5071297;28;20426;-82
2021/09/28 07:25:57;;;;;;;3.08;1.13;;;15.20;72.30;;;;;;5072514;28;20025;-74
2021/09/28 07:28:22;;;;;;;3.25;1.10;;;15.30;71.70;;;;;;5071002;28;20103;-73
2021/09/28 07:30:50;;;;;;;4.80;1.20;;;15.30;71.50;;;;;;5072205;28;20112;-73
2021/09/28 07:33:15;;;;;;;3.50;1.20;;;15.30;69.80;;;;;;5072245;28;20028;-73
2021/09/28 07:35:44;;;;;;;6.85;1.33;;;15.20;69.60;;;;;;5072140;28;20025;-73
2021/09/28 07:38:13;;;;;;;3.03;1.00;;;15.20;68.70;;;;;;5072275;28;20465;-73
2021/09/28 07:40:41;;;;;;;4.78;1.02;;;15.20;68.10;;;;;;5072003;28;20094;-73
2021/09/28 07:43:07;;;;;;;4.72;1.00;;;15.10;68.40;;;;;;5072093;28;20012;-73
2021/09/28 07:45:32;;;;;;;1.80;0.80;;;15.10;69.00;;;;;;5072243;28;20384;-74
2021/09/28 07:47:58;;;;;;;1.98;0.90;;;15.10;69.30;;;;;;5074695;28;20535;-73
2021/09/28 07:50:24;;;;;;;3.35;0.85;;;15.00;68.60;;;;;;5075945;28;20043;-73
2021/09/28 07:52:50;;;;;;;1.73;0.88;;;15.00;69.20;;;;;;5075932;28;20047;-75
2021/09/28 07:55:15;;;;;;;5.90;1.40;;;14.90;69.10;;;;;;5075751;28;20088;-73
2021/09/28 07:57:41;;;;;;;5.10;1.40;;;14.80;69.50;;;;;;5075636;28;20032;-74
2021/09/28 08:00:09;;;;;;;1.25;0.80;;;14.80;70.30;;;;;;5075494;28;20499;-73
2021/09/28 08:02:37;;;;;;;6.72;1.25;;;14.80;70.60;;;;;;5075807;28;20147;-73
2021/09/28 08:05:04;;;;;;;3.95;1.00;;;14.90;72.00;;;;;;5075921;28;20052;-73
2021/09/28 08:07:29;;;;;;;1.95;0.75;;;15.00;72.40;;;;;;5076717;28;20131;-73
2021/09/28 08:09:55;;;;;;;6.85;1.20;;;15.20;71.80;;;;;;5075729;28;20052;-73
2021/09/28 08:12:20;;;;;;;4.10;0.73;;;15.40;71.40;;;;;;5075545;28;20058;-73
2021/09/28 08:14:46;;;;;;;4.40;1.20;;;15.50;71.20;;;;;;5075477;28;20036;-73
2021/09/28 08:17:11;;;;;;;2.20;0.82;;;15.60;70.40;;;;;;5075438;28;20063;-73
2021/09/28 08:19:39;;;;;;;5.18;0.80;;;15.50;68.80;;;;;;5075306;28;20538;-74
2021/09/28 08:22:10;;;;;;;4.85;1.20;;;15.60;68.90;;;;;;5075538;28;20038;-73
2021/09/28 08:24:41;;;;;;;4.55;1.00;;;15.70;69.00;;;;;;5075586;28;20055;-74
2021/09/28 08:29:53;;;;;;;3.75;1.23;;;15.70;67.40;;;;;;5075138;28;20107;-73
2021/09/28 08:32:18;;;;;;;4.90;0.98;;;15.70;69.60;;;;;;5075277;28;20451;-72
2021/09/28 08:34:44;;;;;;;5.93;1.23;;;15.70;68.50;;;;;;5074931;28;20036;-73
2021/09/28 08:37:09;;;;;;;3.47;1.02;;;15.90;68.70;;;;;;5075257;28;20109;-74
2021/09/28 08:39:35;;;;;;;4.55;0.90;;;16.00;67.50;;;;;;5075133;28;20028;-73
2021/09/28 08:42:01;;;;;;;6.15;1.15;;;15.70;66.50;;;;;;5074863;28;20028;-73
2021/09/28 08:44:26;;;;;;;5.35;1.25;;;15.70;68.30;;;;;;5074724;28;20388;-73
2021/09/28 08:46:52;;;;;;;4.65;1.35;;;15.60;68.60;;;;;;5074723;28;20024;-73
2021/09/28 08:49:20;;;;;;;2.80;1.02;;;15.70;67.20;;;;;;5075071;28;20036;-73
2021/09/28 08:51:50;;;;;;;7.88;1.15;;;15.60;69.20;;;;;;5074285;28;20027;-73
2021/09/28 08:54:17;;;;;;;6.43;1.33;;;15.80;68.40;;;;;;5074815;28;20069;-72
2021/09/28 08:56:43;;;;;;;3.63;1.20;;;15.90;68.60;;;;;;5074881;28;20020;-73
2021/09/28 08:59:10;;;;;;;4.20;1.02;;;16.10;67.90;;;;;;5072700;28;20086;-74
2021/09/28 09:01:51;;;;;;;5.45;1.25;;;16.50;67.30;;;;;;5073487;28;20495;-73
2021/09/28 09:04:19;;;;;;;4.50;1.55;;;16.70;66.80;;;;;;5074625;28;20473;-72
2021/09/28 09:06:45;;;;;;;7.72;1.08;;;16.40;67.20;;;;;;5074491;28;20066;-72
2021/09/28 09:09:15;;;;;;;4.95;1.20;;;16.30;67.20;;;;;;5074650;28;20017;-73
2021/09/28 09:11:46;;;;;;;7.20;1.45;;;16.30;67.40;;;;;;5075816;28;20094;-73
2021/09/28 09:14:18;;;;;;;4.90;1.15;;;16.50;67.50;;;;;;5074632;28;20029;-71
2021/09/28 09:16:47;;;;;;;5.85;1.45;;;16.50;66.00;;;;;;5074586;28;20067;-74
2021/09/28 09:19:18;;;;;;;4.50;0.98;;;16.70;65.80;;;;;;5074104;28;20052;-73
2021/09/28 09:21:50;;;;;;;8.25;1.60;;;17.20;65.80;;;;;;5074217;28;20060;-75
2021/09/28 09:24:46;;;;;;;7.03;1.23;;;17.70;64.10;;;;;;5073098;28;20431;-75
2021/09/28 09:27:19;;;;;;;3.05;1.08;;;17.70;62.40;;;;;;5078970;28;20047;-75
2021/09/28 09:30:03;;;;;;;5.15;1.30;;;17.80;63.20;;;;;;5096654;28;20028;-73
2021/09/28 09:32:47;;;;;;;6.57;1.33;;;18.10;61.30;;;;;;5082203;28;20381;-75
2021/09/28 09:35:26;;;;;;;4.15;1.30;;;18.00;61.10;;;;;;5074074;28;20057;-76
2021/09/28 09:38:13;;;;;;;8.65;1.70;;;18.00;60.10;;;;;;5074182;28;20024;-75
2021/09/28 09:40:44;;;;;;;4.25;1.50;;;17.90;60.80;;;;;;5073761;28;20104;-75
2021/09/28 09:43:11;;;;;;;6.03;1.80;;;18.10;61.50;;;;;;5073834;28;20071;-75
2021/09/28 09:45:37;;;;;;;4.18;0.88;;;18.30;60.40;;;;;;5074028;28;20024;-76
2021/09/28 09:48:26;;;;;;;4.00;1.27;;;18.50;60.00;;;;;;5074043;28;20082;-77
2021/09/28 09:51:03;;;;;;;3.88;1.10;;;18.70;59.20;;;;;;5073981;28;20016;-76
2021/09/28 09:53:28;;;;;;;4.70;1.40;;;18.90;57.90;;;;;;5073707;28;20057;-76
2021/09/28 09:55:54;;;;;;;4.32;1.05;;;18.80;58.40;;;;;;5073982;28;20107;-74
2021/09/28 09:58:20;;;;;;;5.55;1.00;;;18.60;58.00;;;;;;5073836;28;20028;-75
2021/09/28 10:00:49;;;;;;;5.88;1.38;;;18.50;58.30;;;;;;5073596;28;20468;-75
2021/09/28 10:03:15;;;;;;;5.15;1.30;;;18.60;59.00;;;;;;5073436;28;20039;-75
2021/09/28 10:05:41;;;;;;;4.47;1.20;;;19.10;59.00;;;;;;5073140;28;20073;-77
2021/09/28 10:08:11;;;;;;;4.45;0.93;;;19.40;57.00;;;;;;5073122;28;20100;-76
2021/09/28 10:10:38;;;;;;;1.75;1.02;;;19.70;54.90;;;;;;5072189;28;20042;-73
2021/09/28 10:13:05;;;;;;;3.53;1.00;;;20.10;54.30;;;;;;5072958;28;20029;-74
2021/09/28 10:15:31;;;;;;;7.30;1.33;;;20.50;54.50;;;;;;5072759;28;20028;-75
2021/09/28 10:17:57;;;;;;;5.15;1.40;;;21.00;53.30;;;;;;5073191;28;20028;-73
2021/09/28 10:20:22;;;;;;;2.55;0.80;;;21.40;51.60;;;;;;5073172;28;20021;-74
2021/09/28 10:22:53;;;;;;;3.90;0.82;;;21.60;49.40;;;;;;5072843;28;20021;-74
2021/09/28 10:25:21;;;;;;;5.45;1.23;;;21.50;47.60;;;;;;5073169;28;20118;-73
2021/09/28 10:27:47;;;;;;;4.32;0.85;;;21.10;47.00;;;;;;5073023;28;20035;-74
2021/09/28 10:30:31;;;;;;;4.45;0.82;;;20.60;50.10;;;;;;5072975;28;20380;-73
2021/09/28 10:33:02;;;;;;;5.72;0.98;;;20.10;52.00;;;;;;5073039;28;20493;-74
2021/09/28 10:35:28;;;;;;;3.55;0.82;;;20.20;53.10;;;;;;5072854;28;20481;-74
2021/09/28 10:38:01;;;;;;;5.22;1.23;;;20.00;52.40;;;;;;5072833;28;20040;-74
2021/09/28 10:40:26;;;;;;;4.78;1.08;;;20.20;51.60;;;;;;5073204;28;20402;-73
2021/09/28 10:42:53;;;;;;;1.92;0.60;;;20.20;52.10;;;;;;5072979;28;20021;-73
2021/09/28 10:45:21;;;;;;;3.70;0.80;;;20.30;50.10;;;;;;5072962;28;20025;-74
2021/09/28 10:47:54;;;;;;;3.75;0.93;;;20.30;50.60;;;;;;5072188;28;20111;-74
2021/09/28 10:50:32;;;;;;;3.00;0.60;;;20.20;50.60;;;;;;5072178;28;20028;-74
2021/09/28 10:53:00;;;;;;;2.28;0.85;;;20.50;49.90;;;;;;5071660;28;20070;-74
2021/09/28 10:55:29;;;;;;;3.42;0.90;;;20.50;50.30;;;;;;5072167;28;20036;-73
2021/09/28 10:57:59;;;;;;;5.63;1.40;;;20.80;49.00;;;;;;5071780;28;20017;-73
2021/09/28 11:00:26;;;;;;;3.25;1.20;;;20.90;50.20;;;;;;5071541;28;20097;-75
2021/09/28 11:02:58;;;;;;;3.88;1.00;;;21.50;48.10;;;;;;5071826;28;20021;-74
2021/09/28 11:05:29;;;;;;;3.03;1.00;;;22.00;46.90;;;;;;5071624;28;20043;-73
2021/09/28 11:07:56;;;;;;;4.40;0.80;;;22.40;45.70;;;;;;5071699;28;20380;-73
2021/09/28 11:10:22;;;;;;;3.80;0.80;;;22.80;44.90;;;;;;5071783;28;20065;-74
2021/09/28 11:12:48;;;;;;;4.45;0.90;;;23.10;43.90;;;;;;5071536;28;20542;-74
2021/09/28 11:15:23;;;;;;;4.50;0.75;;;22.90;41.70;;;;;;5071536;28;20428;-73
2021/09/28 11:17:49;;;;;;;6.00;0.75;;;22.30;41.90;;;;;;5071890;28;20036;-74
2021/09/28 11:20:27;;;;;;;3.42;0.88;;;21.90;43.50;;;;;;5071662;28;20021;-74
2021/09/28 11:22:56;;;;;;;3.95;0.88;;;22.10;44.30;;;;;;5074974;28;20029;-74
2021/09/28 11:25:22;;;;;;;5.95;1.98;;;22.70;43.80;;;;;;5076023;28;20029;-75
2021/09/28 11:28:08;;;;;;;4.68;1.00;;;23.20;42.20;;;;;;5075716;28;20016;-75
2021/09/28 11:30:39;;;;;;;4.13;1.00;;;23.40;40.20;;;;;;5076041;28;20029;-75
2021/09/28 11:33:07;;;;;;;4.00;0.95;;;23.60;40.30;;;;;;5076020;28;20100;-74
2021/09/28 11:35:35;;;;;;;5.82;1.10;;;23.70;40.60;;;;;;5076111;28;20047;-74
2021/09/28 11:38:03;;;;;;;3.35;1.02;;;23.60;39.50;;;;;;5076077;28;20495;-74
2021/09/28 11:40:39;;;;;;;3.55;1.05;;;23.80;40.30;;;;;;5076276;28;20036;-76
2021/09/28 11:43:25;;;;;;;4.03;0.80;;;23.00;40.40;;;;;;5076053;28;20013;-76
2021/09/28 11:46:02;;;;;;;5.10;1.30;;;22.50;43.20;;;;;;5075927;28;20476;-77
2021/09/28 11:48:34;;;;;;;3.78;1.00;;;22.40;42.90;;;;;;5075733;28;20020;-76
2021/09/28 11:51:13;;;;;;;4.22;1.17;;;22.00;43.50;;;;;;5075895;28;20043;-76
2021/09/28 11:53:43;;;;;;;7.80;1.40;;;21.40;45.90;;;;;;5079969;28;20070;-75
2021/09/28 11:56:10;;;;;;;4.47;1.17;;;21.80;46.80;;;;;;5076189;28;20029;-74
2021/09/28 11:58:37;;;;;;;5.40;1.00;;;22.20;44.70;;;;;;5075909;28;20094;-73
2021/09/28 12:01:07;;;;;;;4.20;0.98;;;22.50;44.50;;;;;;5076120;28;20025;-73
2021/09/28 12:03:35;;;;;;;4.88;1.35;;;22.80;43.30;;;;;;5075985;28;20020;-74
2021/09/28 12:06:06;;;;;;;3.80;1.02;;;23.20;42.50;;;;;;5075941;28;20483;-73
2021/09/28 12:08:33;;;;;;;35.15;24.13;;;23.50;41.70;;;;;;5075920;28;20031;-74
2021/09/28 12:11:04;;;;;;;4.78;1.98;;;23.80;40.50;;;;;;5075788;28;20024;-73
2021/09/28 12:13:30;;;;;;;6.50;1.70;;;24.20;40.00;;;;;;5075564;28;20021;-74
2021/09/28 12:15:57;;;;;;;4.22;1.73;;;24.40;39.70;;;;;;5075749;28;20021;-74
2021/09/28 12:18:23;;;;;;;4.25;1.52;;;24.70;38.60;;;;;;5075726;28;20024;-74
2021/09/28 12:20:49;;;;;;;4.57;1.30;;;25.00;37.80;;;;;;5075523;28;20024;-75
2021/09/28 12:23:15;;;;;;;2.08;0.80;;;24.90;36.80;;;;;;5075725;28;20029;-75
2021/09/28 12:25:44;;;;;;;3.83;1.40;;;25.00;37.00;;;;;;5075457;28;20370;-75
2021/09/28 12:28:17;;;;;;;5.10;0.95;;;25.00;36.90;;;;;;5075233;28;20103;-75
2021/09/28 12:30:50;;;;;;;5.53;1.30;;;24.90;36.80;;;;;;5075407;28;20464;-74
2021/09/28 12:33:16;;;;;;;3.78;1.23;;;24.60;36.70;;;;;;5074366;28;20050;-76
2021/09/28 12:35:42;;;;;;;3.65;1.17;;;24.60;37.70;;;;;;5075294;28;20058;-75
2021/09/28 12:38:13;;;;;;;4.40;0.88;;;24.90;37.40;;;;;;5075454;28;20016;-75
2021/09/28 12:40:42;;;;;;;12.68;8.90;;;25.10;37.10;;;;;;5075476;28;20028;-76
2021/09/28 12:43:09;;;;;;;4.93;1.83;;;25.30;36.80;;;;;;5075320;28;20069;-74
2021/09/28 12:45:45;;;;;;;5.78;1.02;;;25.30;36.20;;;;;;5073970;28;20373;-74
2021/09/28 12:48:11;;;;;;;3.58;0.80;;;25.30;36.10;;;;;;5075191;28;20036;-74